HEL weather

Helsinki Vantaa Airport
Helsinki, Southern Finland, Finland

Public forecast

Using degrees Celsius for public forecast. Weather courtesy of forecast.io.

Current aviation weather report (METAR) for Helsinki Vantaa Airport

Retrieved 2019/11/19 16:20 UTC (40 minutes ago):

EFHK 191620Z 13010KT 9999 OVC008 06/05 Q1023 NOSIG

Aviation forecast (TAF) for Helsinki Vantaa Airport

Retrieved 2019/11/19 15:42 UTC (1 hour ago):

TAF TAF EFHK 191422Z 1915/2015 14010KT 9999 BKN012 TEMPO 1915/2003 BKN008 TEMPO 2003/2015 5000 -DZ BKN004